sensor_id;sensor_type;location;lat;lon;timestamp;pressure;altitude;pressure_sealevel;temperature;humidity
55932;BME280;41837;55.700;37.984;2022-12-13T00:01:36;99093.97;;;1.41;100.00
55932;BME280;41837;55.700;37.984;2022-12-13T00:04:04;99097.16;;;1.54;100.00
55932;BME280;41837;55.700;37.984;2022-12-13T00:06:32;99079.34;;;1.42;100.00
55932;BME280;41837;55.700;37.984;2022-12-13T00:09:00;99087.84;;;1.47;100.00
55932;BME280;41837;55.700;37.984;2022-12-13T00:11:28;99101.38;;;1.60;100.00
55932;BME280;41837;55.700;37.984;2022-12-13T00:13:54;99091.84;;;1.65;100.00
55932;BME280;41837;55.700;37.984;2022-12-13T00:16:24;99084.03;;;1.70;100.00
55932;BME280;41837;55.700;37.984;2022-12-13T00:18:56;99088.00;;;1.88;100.00
55932;BME280;41837;55.700;37.984;2022-12-13T00:21:28;99088.59;;;1.54;100.00
55932;BME280;41837;55.700;37.984;2022-12-13T00:23:56;99095.44;;;1.56;100.00
55932;BME280;41837;55.700;37.984;2022-12-13T00:26:26;99080.69;;;1.64;100.00
55932;BME280;41837;55.700;37.984;2022-12-13T00:28:53;99091.78;;;1.68;100.00
55932;BME280;41837;55.700;37.984;2022-12-13T00:31:22;99082.13;;;1.81;100.00
55932;BME280;41837;55.700;37.984;2022-12-13T00:33:49;99079.41;;;1.37;100.00
55932;BME280;41837;55.700;37.984;2022-12-13T00:36:16;99080.47;;;1.77;100.00
55932;BME280;41837;55.700;37.984;2022-12-13T00:38:42;99075.78;;;1.49;100.00
55932;BME280;41837;55.700;37.984;2022-12-13T00:41:18;99096.34;;;1.54;100.00
55932;BME280;41837;55.700;37.984;2022-12-13T00:43:45;99090.38;;;1.50;100.00
55932;BME280;41837;55.700;37.984;2022-12-13T00:46:14;99091.69;;;1.73;100.00
55932;BME280;41837;55.700;37.984;2022-12-13T00:48:41;99101.56;;;1.49;100.00
55932;BME280;41837;55.700;37.984;2022-12-13T00:51:09;99093.53;;;1.66;100.00
55932;BME280;41837;55.700;37.984;2022-12-13T00:53:36;99091.06;;;1.61;100.00
55932;BME280;41837;55.700;37.984;2022-12-13T00:56:03;99063.50;;;1.66;100.00
55932;BME280;41837;55.700;37.984;2022-12-13T00:58:30;99078.97;;;1.65;100.00
55932;BME280;41837;55.700;37.984;2022-12-13T01:01:09;99080.47;;;1.77;100.00
55932;BME280;41837;55.700;37.984;2022-12-13T01:03:36;99083.22;;;1.66;100.00
55932;BME280;41837;55.700;37.984;2022-12-13T01:06:18;99071.66;;;1.90;100.00
55932;BME280;41837;55.700;37.984;2022-12-13T01:08:46;99079.06;;;1.59;100.00
55932;BME280;41837;55.700;37.984;2022-12-13T01:11:13;99072.66;;;1.81;100.00
55932;BME280;41837;55.700;37.984;2022-12-13T01:13:39;99071.06;;;1.74;100.00
55932;BME280;41837;55.700;37.984;2022-12-13T01:16:08;99076.78;;;1.42;100.00
55932;BME280;41837;55.700;37.984;2022-12-13T01:18:37;99065.19;;;1.66;100.00
55932;BME280;41837;55.700;37.984;2022-12-13T01:21:11;99070.03;;;1.83;100.00
55932;BME280;41837;55.700;37.984;2022-12-13T01:23:38;99069.38;;;1.73;100.00
55932;BME280;41837;55.700;37.984;2022-12-13T01:26:07;99079.31;;;1.45;100.00
55932;BME280;41837;55.700;37.984;2022-12-13T01:28:35;99080.25;;;1.89;100.00
55932;BME280;41837;55.700;37.984;2022-12-13T01:31:04;99078.59;;;1.35;100.00
55932;BME280;41837;55.700;37.984;2022-12-13T01:33:31;99082.97;;;1.80;100.00
55932;BME280;41837;55.700;37.984;2022-12-13T01:36:03;99086.78;;;1.60;100.00
55932;BME280;41837;55.700;37.984;2022-12-13T01:38:30;99075.22;;;1.81;100.00
55932;BME280;41837;55.700;37.984;2022-12-13T01:40:56;99081.56;;;1.63;100.00
55932;BME280;41837;55.700;37.984;2022-12-13T01:46:14;99078.63;;;2.29;100.00
55932;BME280;41837;55.700;37.984;2022-12-13T01:48:47;99072.50;;;1.91;100.00
55932;BME280;41837;55.700;37.984;2022-12-13T01:51:18;99076.59;;;2.01;100.00
55932;BME280;41837;55.700;37.984;2022-12-13T01:53:47;99075.34;;;1.75;100.00
55932;BME280;41837;55.700;37.984;2022-12-13T01:56:21;99079.72;;;1.72;100.00
55932;BME280;41837;55.700;37.984;2022-12-13T01:58:51;99079.88;;;1.61;100.00
55932;BME280;41837;55.700;37.984;2022-12-13T02:01:19;99078.44;;;1.94;100.00
55932;BME280;41837;55.700;37.984;2022-12-13T02:03:48;99081.00;;;1.94;100.00
55932;BME280;41837;55.700;37.984;2022-12-13T02:06:43;99092.44;;;1.79;100.00
55932;BME280;41837;55.700;37.984;2022-12-13T02:09:09;99073.97;;;1.56;100.00
55932;BME280;41837;55.700;37.984;2022-12-13T02:11:38;99076.66;;;1.96;100.00
55932;BME280;41837;55.700;37.984;2022-12-13T02:14:06;99080.66;;;1.66;100.00
55932;BME280;41837;55.700;37.984;2022-12-13T02:30:45;99085.47;;;1.86;100.00
55932;BME280;41837;55.700;37.984;2022-12-13T02:33:34;99089.72;;;1.37;100.00
55932;BME280;41837;55.700;37.984;2022-12-13T02:41:45;99091.41;;;1.90;100.00
55932;BME280;41837;55.700;37.984;2022-12-13T02:44:17;99101.25;;;1.67;100.00
55932;BME280;41837;55.700;37.984;2022-12-13T02:46:54;99084.91;;;1.68;100.00
55932;BME280;41837;55.700;37.984;2022-12-13T02:49:25;99085.09;;;2.06;100.00
55932;BME280;41837;55.700;37.984;2022-12-13T02:51:55;99084.28;;;1.54;100.00
55932;BME280;41837;55.700;37.984;2022-12-13T02:54:23;99087.03;;;1.93;100.00
55932;BME280;41837;55.700;37.984;2022-12-13T02:56:57;99089.81;;;1.34;100.00
55932;BME280;41837;55.700;37.984;2022-12-13T02:59:32;99084.22;;;1.59;100.00
55932;BME280;41837;55.700;37.984;2022-12-13T03:02:23;99073.06;;;2.05;100.00
55932;BME280;41837;55.700;37.984;2022-12-13T03:08:08;99095.41;;;2.06;100.00
55932;BME280;41837;55.700;37.984;2022-12-13T03:10:45;99101.72;;;1.40;100.00
55932;BME280;41837;55.700;37.984;2022-12-13T03:13:25;99093.34;;;1.78;100.00
55932;BME280;41837;55.700;37.984;2022-12-13T03:16:21;99110.63;;;1.73;100.00
55932;BME280;41837;55.700;37.984;2022-12-13T03:18:51;99103.41;;;1.41;100.00
55932;BME280;41837;55.700;37.984;2022-12-13T03:21:21;99101.66;;;1.43;100.00
55932;BME280;41837;55.700;37.984;2022-12-13T03:23:48;99098.81;;;1.60;100.00
55932;BME280;41837;55.700;37.984;2022-12-13T03:26:19;99096.16;;;1.63;100.00
55932;BME280;41837;55.700;37.984;2022-12-13T03:28:46;99088.78;;;1.91;100.00
55932;BME280;41837;55.700;37.984;2022-12-13T03:31:13;99070.91;;;1.83;100.00
55932;BME280;41837;55.700;37.984;2022-12-13T03:33:39;99075.94;;;1.90;100.00
55932;BME280;41837;55.700;37.984;2022-12-13T03:36:05;99096.84;;;1.74;100.00
55932;BME280;41837;55.700;37.984;2022-12-13T03:38:31;99073.56;;;1.79;100.00
55932;BME280;41837;55.700;37.984;2022-12-13T03:41:04;99090.31;;;2.01;100.00
55932;BME280;41837;55.700;37.984;2022-12-13T03:43:31;99086.44;;;1.79;100.00
55932;BME280;41837;55.700;37.984;2022-12-13T03:45:59;99086.97;;;1.96;100.00
55932;BME280;41837;55.700;37.984;2022-12-13T03:48:26;99081.66;;;2.05;100.00
55932;BME280;41837;55.700;37.984;2022-12-13T03:50:53;99090.63;;;1.84;100.00
55932;BME280;41837;55.700;37.984;2022-12-13T03:53:21;99082.16;;;2.24;100.00
55932;BME280;41837;55.700;37.984;2022-12-13T03:55:47;99093.44;;;1.72;100.00
55932;BME280;41837;55.700;37.984;2022-12-13T03:58:17;99082.94;;;1.83;100.00
55932;BME280;41837;55.700;37.984;2022-12-13T04:00:43;99096.53;;;1.91;100.00
55932;BME280;41837;55.700;37.984;2022-12-13T04:03:10;99102.16;;;1.65;100.00
55932;BME280;41837;55.700;37.984;2022-12-13T04:05:36;99094.97;;;1.82;100.00
55932;BME280;41837;55.700;37.984;2022-12-13T04:08:02;99099.19;;;1.86;100.00
55932;BME280;41837;55.700;37.984;2022-12-13T04:10:29;99091.91;;;2.09;100.00
55932;BME280;41837;55.700;37.984;2022-12-13T04:12:55;99094.53;;;2.07;100.00
55932;BME280;41837;55.700;37.984;2022-12-13T04:15:41;99101.75;;;1.86;100.00
55932;BME280;41837;55.700;37.984;2022-12-13T04:18:15;99088.38;;;2.14;100.00
55932;BME280;41837;55.700;37.984;2022-12-13T04:20:42;99090.06;;;1.70;100.00
55932;BME280;41837;55.700;37.984;2022-12-13T04:23:09;99091.22;;;2.00;100.00
55932;BME280;41837;55.700;37.984;2022-12-13T04:25:36;99098.78;;;2.08;100.00
55932;BME280;41837;55.700;37.984;2022-12-13T04:28:05;99090.25;;;2.06;100.00
55932;BME280;41837;55.700;37.984;2022-12-13T04:30:32;99099.34;;;1.79;100.00
55932;BME280;41837;55.700;37.984;2022-12-13T04:32:58;99094.75;;;1.95;100.00
55932;BME280;41837;55.700;37.984;2022-12-13T04:35:25;99092.81;;;2.06;100.00
55932;BME280;41837;55.700;37.984;2022-12-13T04:37:51;99101.91;;;1.79;100.00
55932;BME280;41837;55.700;37.984;2022-12-13T04:40:17;99101.69;;;1.91;100.00
55932;BME280;41837;55.700;37.984;2022-12-13T04:42:45;99095.22;;;2.15;100.00
55932;BME280;41837;55.700;37.984;2022-12-13T04:45:16;99099.72;;;2.48;100.00
55932;BME280;41837;55.700;37.984;2022-12-13T04:47:43;99111.97;;;1.93;100.00
55932;BME280;41837;55.700;37.984;2022-12-13T04:50:09;99102.28;;;2.05;100.00
55932;BME280;41837;55.700;37.984;2022-12-13T04:52:36;99116.16;;;1.98;100.00
55932;BME280;41837;55.700;37.984;2022-12-13T04:55:05;99108.97;;;2.16;100.00
55932;BME280;41837;55.700;37.984;2022-12-13T04:57:32;99104.00;;;2.05;100.00
55932;BME280;41837;55.700;37.984;2022-12-13T04:59:58;99087.78;;;2.00;100.00
55932;BME280;41837;55.700;37.984;2022-12-13T05:02:24;99102.59;;;1.90;100.00
55932;BME280;41837;55.700;37.984;2022-12-13T05:04:51;99103.72;;;2.19;100.00
55932;BME280;41837;55.700;37.984;2022-12-13T05:07:17;99100.09;;;1.84;100.00
55932;BME280;41837;55.700;37.984;2022-12-13T05:09:44;99111.19;;;1.89;100.00
55932;BME280;41837;55.700;37.984;2022-12-13T05:12:10;99109.88;;;2.13;100.00
55932;BME280;41837;55.700;37.984;2022-12-13T05:14:39;99110.13;;;1.99;100.00
55932;BME280;41837;55.700;37.984;2022-12-13T05:17:05;99089.06;;;1.77;100.00
55932;BME280;41837;55.700;37.984;2022-12-13T05:19:32;99094.75;;;1.95;100.00
55932;BME280;41837;55.700;37.984;2022-12-13T05:21:59;99083.81;;;1.82;100.00
55932;BME280;41837;55.700;37.984;2022-12-13T05:24:25;99108.97;;;2.16;100.00
55932;BME280;41837;55.700;37.984;2022-12-13T05:26:51;99107.19;;;2.19;100.00
55932;BME280;41837;55.700;37.984;2022-12-13T05:29:17;99121.03;;;2.14;100.00
55932;BME280;41837;55.700;37.984;2022-12-13T05:31:44;99113.38;;;2.11;100.00
55932;BME280;41837;55.700;37.984;2022-12-13T05:34:10;99108.25;;;2.09;100.00
55932;BME280;41837;55.700;37.984;2022-12-13T05:36:37;99100.00;;;1.90;100.00
55932;BME280;41837;55.700;37.984;2022-12-13T05:39:03;99121.63;;;2.28;100.00
55932;BME280;41837;55.700;37.984;2022-12-13T05:41:32;99121.41;;;1.94;100.00
55932;BME280;41837;55.700;37.984;2022-12-13T05:44:00;99121.22;;;2.03;100.00
55932;BME280;41837;55.700;37.984;2022-12-13T05:46:26;99092.97;;;1.97;100.00
55932;BME280;41837;55.700;37.984;2022-12-13T05:48:52;99118.38;;;1.72;100.00
55932;BME280;41837;55.700;37.984;2022-12-13T05:51:18;99110.41;;;1.84;100.00
55932;BME280;41837;55.700;37.984;2022-12-13T05:53:44;99116.09;;;2.01;100.00
55932;BME280;41837;55.700;37.984;2022-12-13T05:56:12;99126.91;;;2.20;100.00
55932;BME280;41837;55.700;37.984;2022-12-13T05:58:39;99127.38;;;1.96;100.00
55932;BME280;41837;55.700;37.984;2022-12-13T06:01:11;99120.38;;;2.04;100.00
55932;BME280;41837;55.700;37.984;2022-12-13T06:03:38;99115.72;;;2.23;100.00
55932;BME280;41837;55.700;37.984;2022-12-13T06:06:06;99128.56;;;1.78;100.00
55932;BME280;41837;55.700;37.984;2022-12-13T06:08:48;99121.38;;;1.95;100.00
55932;BME280;41837;55.700;37.984;2022-12-13T06:11:17;99126.09;;;1.72;100.00
55932;BME280;41837;55.700;37.984;2022-12-13T06:13:43;99113.66;;;1.95;100.00
55932;BME280;41837;55.700;37.984;2022-12-13T06:16:10;99121.38;;;1.95;100.00
55932;BME280;41837;55.700;37.984;2022-12-13T06:18:36;99122.94;;;2.05;100.00
55932;BME280;41837;55.700;37.984;2022-12-13T06:21:05;99113.81;;;1.86;100.00
55932;BME280;41837;55.700;37.984;2022-12-13T06:23:32;99117.88;;;1.99;100.00
55932;BME280;41837;55.700;37.984;2022-12-13T06:26:02;99127.66;;;2.27;100.00
55932;BME280;41837;55.700;37.984;2022-12-13T06:28:28;99128.09;;;2.05;100.00
55932;BME280;41837;55.700;37.984;2022-12-13T06:30:58;99124.28;;;1.77;100.00
55932;BME280;41837;55.700;37.984;2022-12-13T06:33:24;99106.84;;;1.91;100.00
55932;BME280;41837;55.700;37.984;2022-12-13T06:35:55;99124.66;;;1.55;100.00
55932;BME280;41837;55.700;37.984;2022-12-13T06:38:22;99140.72;;;1.70;100.00
55932;BME280;41837;55.700;37.984;2022-12-13T06:40:48;99149.88;;;1.88;100.00
55932;BME280;41837;55.700;37.984;2022-12-13T06:43:14;99144.50;;;1.98;100.00
55932;BME280;41837;55.700;37.984;2022-12-13T06:45:40;99135.78;;;2.07;100.00
55932;BME280;41837;55.700;37.984;2022-12-13T06:48:07;99141.38;;;1.81;100.00
55932;BME280;41837;55.700;37.984;2022-12-13T06:50:33;99157.53;;;1.92;100.00
55932;BME280;41837;55.700;37.984;2022-12-13T06:53:00;99154.78;;;2.00;100.00
55932;BME280;41837;55.700;37.984;2022-12-13T06:55:25;99161.50;;;2.09;100.00
55932;BME280;41837;55.700;37.984;2022-12-13T06:57:52;99161.47;;;2.12;100.00
55932;BME280;41837;55.700;37.984;2022-12-13T07:00:19;99168.69;;;1.91;100.00
55932;BME280;41837;55.700;37.984;2022-12-13T07:02:51;99149.66;;;1.98;100.00
55932;BME280;41837;55.700;37.984;2022-12-13T07:05:17;99164.66;;;2.26;100.00
55932;BME280;41837;55.700;37.984;2022-12-13T07:07:43;99167.72;;;1.98;100.00
55932;BME280;41837;55.700;37.984;2022-12-13T07:10:12;99177.97;;;2.01;100.00
55932;BME280;41837;55.700;37.984;2022-12-13T07:12:39;99180.06;;;2.29;100.00
55932;BME280;41837;55.700;37.984;2022-12-13T07:15:05;99189.31;;;1.91;100.00
55932;BME280;41837;55.700;37.984;2022-12-13T07:17:31;99202.31;;;1.85;100.00
55932;BME280;41837;55.700;37.984;2022-12-13T07:19:58;99193.56;;;1.95;100.00
55932;BME280;41837;55.700;37.984;2022-12-13T07:22:24;99193.94;;;2.22;100.00
55932;BME280;41837;55.700;37.984;2022-12-13T07:24:51;99188.34;;;1.98;100.00
55932;BME280;41837;55.700;37.984;2022-12-13T07:27:18;99194.22;;;2.07;100.00
55932;BME280;41837;55.700;37.984;2022-12-13T07:29:44;99189.31;;;1.91;100.00
55932;BME280;41837;55.700;37.984;2022-12-13T07:32:10;99184.25;;;1.86;100.00
55932;BME280;41837;55.700;37.984;2022-12-13T07:34:36;99204.69;;;1.99;100.00
55932;BME280;41837;55.700;37.984;2022-12-13T07:37:02;99195.16;;;2.02;100.00
55932;BME280;41837;55.700;37.984;2022-12-13T07:39:28;99210.34;;;2.19;100.00
55932;BME280;41837;55.700;37.984;2022-12-13T07:41:56;99207.22;;;2.00;100.00
55932;BME280;41837;55.700;37.984;2022-12-13T07:44:25;99203.44;;;2.20;100.00
55932;BME280;41837;55.700;37.984;2022-12-13T07:46:52;99212.41;;;1.99;100.00
55932;BME280;41837;55.700;37.984;2022-12-13T07:49:18;99211.13;;;2.23;100.00
55932;BME280;41837;55.700;37.984;2022-12-13T07:51:46;99209.53;;;2.17;100.00
55932;BME280;41837;55.700;37.984;2022-12-13T07:54:13;99207.91;;;2.10;100.00
55932;BME280;41837;55.700;37.984;2022-12-13T07:56:39;99200.09;;;2.15;100.00
55932;BME280;41837;55.700;37.984;2022-12-13T08:03:15;99188.31;;;2.48;100.00
55932;BME280;41837;55.700;37.984;2022-12-13T08:06:08;99207.41;;;1.88;100.00
55932;BME280;41837;55.700;37.984;2022-12-13T08:09:08;99206.06;;;1.65;100.00
55932;BME280;41837;55.700;37.984;2022-12-13T08:12:05;99211.72;;;1.88;100.00
55932;BME280;41837;55.700;37.984;2022-12-13T08:14:44;99225.34;;;1.96;100.00
55932;BME280;41837;55.700;37.984;2022-12-13T08:17:29;99223.41;;;1.54;100.00
55932;BME280;41837;55.700;37.984;2022-12-13T08:20:10;99213.94;;;2.11;100.00
55932;BME280;41837;55.700;37.984;2022-12-13T08:22:59;99215.00;;;1.97;100.00
55932;BME280;41837;55.700;37.984;2022-12-13T08:25:38;99224.28;;;2.08;100.00
55932;BME280;41837;55.700;37.984;2022-12-13T08:28:12;99230.81;;;1.76;100.00
55932;BME280;41837;55.700;37.984;2022-12-13T08:31:01;99233.53;;;2.19;100.00
55932;BME280;41837;55.700;37.984;2022-12-13T08:33:36;99220.97;;;1.99;100.00
55932;BME280;41837;55.700;37.984;2022-12-13T08:36:18;99240.56;;;2.10;100.00
55932;BME280;41837;55.700;37.984;2022-12-13T08:38:56;99239.56;;;1.65;100.00
55932;BME280;41837;55.700;37.984;2022-12-13T08:41:33;99236.19;;;1.62;100.00
55932;BME280;41837;55.700;37.984;2022-12-13T08:44:12;99236.81;;;1.75;100.00
55932;BME280;41837;55.700;37.984;2022-12-13T08:46:50;99233.78;;;1.49;100.00
55932;BME280;41837;55.700;37.984;2022-12-13T08:49:26;99240.41;;;1.66;100.00
55932;BME280;41837;55.700;37.984;2022-12-13T08:52:06;99230.25;;;2.10;100.00
55932;BME280;41837;55.700;37.984;2022-12-13T08:54:47;99234.66;;;2.03;100.00
55932;BME280;41837;55.700;37.984;2022-12-13T08:57:28;99246.84;;;1.93;100.00
55932;BME280;41837;55.700;37.984;2022-12-13T09:00:13;99241.81;;;1.87;100.00
55932;BME280;41837;55.700;37.984;2022-12-13T09:02:58;99263.94;;;2.00;100.00
55932;BME280;41837;55.700;37.984;2022-12-13T09:05:43;99262.81;;;1.61;100.00
55932;BME280;41837;55.700;37.984;2022-12-13T09:08:19;99260.38;;;2.08;100.00
55932;BME280;41837;55.700;37.984;2022-12-13T09:11:01;99257.97;;;1.97;100.00
55932;BME280;41837;55.700;37.984;2022-12-13T09:13:47;99268.22;;;2.00;100.00
55932;BME280;41837;55.700;37.984;2022-12-13T09:16:25;99278.78;;;1.84;100.00
55932;BME280;41837;55.700;37.984;2022-12-13T09:19:05;99271.72;;;1.97;100.00
55932;BME280;41837;55.700;37.984;2022-12-13T09:21:45;99265.81;;;1.91;100.00
55932;BME280;41837;55.700;37.984;2022-12-13T09:24:22;99272.59;;;1.96;100.00
55932;BME280;41837;55.700;37.984;2022-12-13T09:26:59;99264.75;;;2.04;100.00
55932;BME280;41837;55.700;37.984;2022-12-13T09:29:36;99276.09;;;1.94;100.00
55932;BME280;41837;55.700;37.984;2022-12-13T09:36:04;99276.00;;;1.98;100.00
55932;BME280;41837;55.700;37.984;2022-12-13T09:38:45;99279.97;;;2.19;100.00
55932;BME280;41837;55.700;37.984;2022-12-13T09:41:34;99270.03;;;1.95;100.00
55932;BME280;41837;55.700;37.984;2022-12-13T09:44:38;99265.31;;;2.21;100.00
55932;BME280;41837;55.700;37.984;2022-12-13T09:47:44;99273.91;;;2.20;100.00
55932;BME280;41837;55.700;37.984;2022-12-13T09:50:30;99251.00;;;2.02;100.00
55932;BME280;41837;55.700;37.984;2022-12-13T09:53:10;99289.28;;;2.28;100.00
55932;BME280;41837;55.700;37.984;2022-12-13T09:59:59;99275.59;;;2.23;100.00
55932;BME280;41837;55.700;37.984;2022-12-13T10:02:56;99279.94;;;2.21;100.00
55932;BME280;41837;55.700;37.984;2022-12-13T10:05:33;99291.44;;;2.00;100.00
55932;BME280;41837;55.700;37.984;2022-12-13T10:08:14;99296.22;;;2.24;100.00
55932;BME280;41837;55.700;37.984;2022-12-13T10:10:51;99279.16;;;2.16;100.00
55932;BME280;41837;55.700;37.984;2022-12-13T10:16:44;99289.69;;;2.02;100.00
55932;BME280;41837;55.700;37.984;2022-12-13T10:21:53;99297.31;;;2.08;100.00
55932;BME280;41837;55.700;37.984;2022-12-13T10:24:26;99289.75;;;1.99;100.00
55932;BME280;41837;55.700;37.984;2022-12-13T10:27:58;99296.69;;;3.37;100.00
55932;BME280;41837;55.700;37.984;2022-12-13T10:30:13;99303.06;;;2.75;100.00
55932;BME280;41837;55.700;37.984;2022-12-13T10:33:01;99299.56;;;2.78;100.00
55932;BME280;41837;55.700;37.984;2022-12-13T10:35:41;99296.06;;;2.82;100.00
55932;BME280;41837;55.700;37.984;2022-12-13T10:38:21;99298.84;;;3.16;100.00
55932;BME280;41837;55.700;37.984;2022-12-13T10:41:35;99303.31;;;2.63;100.00
55932;BME280;41837;55.700;37.984;2022-12-13T10:44:23;99295.13;;;2.86;100.00
55932;BME280;41837;55.700;37.984;2022-12-13T10:47:04;99300.34;;;2.82;100.00
55932;BME280;41837;55.700;37.984;2022-12-13T10:50:25;99314.63;;;3.01;100.00
55932;BME280;41837;55.700;37.984;2022-12-13T10:53:03;99309.97;;;3.18;100.00
55932;BME280;41837;55.700;37.984;2022-12-13T10:55:40;99318.97;;;3.43;100.00
55932;BME280;41837;55.700;37.984;2022-12-13T10:58:20;99312.22;;;3.35;100.00
55932;BME280;41837;55.700;37.984;2022-12-13T11:00:53;99313.06;;;3.36;100.00
55932;BME280;41837;55.700;37.984;2022-12-13T11:04:05;99313.63;;;3.50;100.00
55932;BME280;41837;55.700;37.984;2022-12-13T11:06:44;99322.38;;;3.45;100.00
55932;BME280;41837;55.700;37.984;2022-12-13T11:09:27;99325.91;;;3.41;100.00
55932;BME280;41837;55.700;37.984;2022-12-13T11:12:03;99312.84;;;3.47;100.00
55932;BME280;41837;55.700;37.984;2022-12-13T11:15:04;99323.72;;;3.63;100.00
55932;BME280;41837;55.700;37.984;2022-12-13T11:17:53;99323.63;;;3.67;100.00
55932;BME280;41837;55.700;37.984;2022-12-13T11:20:36;99300.50;;;3.60;100.00
55932;BME280;41837;55.700;37.984;2022-12-13T11:23:35;99311.91;;;3.51;100.00
55932;BME280;41837;55.700;37.984;2022-12-13T11:26:15;99309.50;;;3.82;100.00
55932;BME280;41837;55.700;37.984;2022-12-13T11:31:49;99308.22;;;3.61;100.00
55932;BME280;41837;55.700;37.984;2022-12-13T11:40:28;99320.78;;;3.38;100.00
55932;BME280;41837;55.700;37.984;2022-12-13T11:43:24;99336.16;;;3.45;100.00
55932;BME280;41837;55.700;37.984;2022-12-13T11:46:16;99340.56;;;3.40;100.00
55932;BME280;41837;55.700;37.984;2022-12-13T11:49:01;99350.03;;;3.41;100.00
55932;BME280;41837;55.700;37.984;2022-12-13T11:52:04;99344.78;;;3.44;100.00
55932;BME280;41837;55.700;37.984;2022-12-13T11:58:03;99356.44;;;3.64;100.00
55932;BME280;41837;55.700;37.984;2022-12-13T12:00:44;99355.97;;;3.45;100.00
55932;BME280;41837;55.700;37.984;2022-12-13T12:06:49;99375.31;;;3.24;100.00
55932;BME280;41837;55.700;37.984;2022-12-13T12:09:29;99379.66;;;3.22;100.00
55932;BME280;41837;55.700;37.984;2022-12-13T12:12:17;99383.22;;;3.16;100.00
55932;BME280;41837;55.700;37.984;2022-12-13T12:14:55;99389.50;;;3.03;100.00
55932;BME280;41837;55.700;37.984;2022-12-13T12:17:31;99395.06;;;2.79;100.00
55932;BME280;41837;55.700;37.984;2022-12-13T12:20:18;99420.22;;;2.68;100.00
55932;BME280;41837;55.700;37.984;2022-12-13T12:23:27;99416.41;;;2.89;100.00
55932;BME280;41837;55.700;37.984;2022-12-13T12:26:14;99414.66;;;2.90;100.00
55932;BME280;41837;55.700;37.984;2022-12-13T12:35:31;99391.56;;;3.30;100.00
55932;BME280;41837;55.700;37.984;2022-12-13T12:43:43;99399.09;;;2.96;100.00
55932;BME280;41837;55.700;37.984;2022-12-13T12:49:45;99385.31;;;3.42;100.00
55932;BME280;41837;55.700;37.984;2022-12-13T12:56:26;99386.38;;;3.30;100.00
55932;BME280;41837;55.700;37.984;2022-12-13T12:59:36;99384.03;;;3.20;100.00
55932;BME280;41837;55.700;37.984;2022-12-13T13:02:24;99386.31;;;3.35;100.00
55932;BME280;41837;55.700;37.984;2022-12-13T13:05:36;99374.03;;;3.46;100.00
55932;BME280;41837;55.700;37.984;2022-12-13T13:08:27;99372.63;;;3.30;100.00
55932;BME280;41837;55.700;37.984;2022-12-13T13:11:03;99380.91;;;3.02;100.00
55932;BME280;41837;55.700;37.984;2022-12-13T13:14:00;99385.94;;;3.08;100.00
55932;BME280;41837;55.700;37.984;2022-12-13T13:16:58;99384.25;;;3.07;100.00
55932;BME280;41837;55.700;37.984;2022-12-13T13:22:31;99391.53;;;2.85;100.00
55932;BME280;41837;55.700;37.984;2022-12-13T13:27:44;99393.91;;;2.45;100.00
55932;BME280;41837;55.700;37.984;2022-12-13T13:30:23;99390.66;;;2.33;100.00
55932;BME280;41837;55.700;37.984;2022-12-13T13:33:00;99395.34;;;2.61;100.00
55932;BME280;41837;55.700;37.984;2022-12-13T13:47:30;99388.59;;;2.54;100.00
55932;BME280;41837;55.700;37.984;2022-12-13T14:14:18;99412.81;;;2.47;100.00
55932;BME280;41837;55.700;37.984;2022-12-13T14:17:11;99400.09;;;2.34;100.00
55932;BME280;41837;55.700;37.984;2022-12-13T14:29:33;99390.44;;;2.46;100.00
55932;BME280;41837;55.700;37.984;2022-12-13T14:32:27;99390.13;;;2.11;100.00
55932;BME280;41837;55.700;37.984;2022-12-13T14:35:03;99375.44;;;2.16;100.00
55932;BME280;41837;55.700;37.984;2022-12-13T14:37:37;99377.28;;;2.07;100.00
55932;BME280;41837;55.700;37.984;2022-12-13T14:40:35;99376.69;;;2.45;100.00
55932;BME280;41837;55.700;37.984;2022-12-13T14:43:25;99374.97;;;2.46;100.00
55932;BME280;41837;55.700;37.984;2022-12-13T14:46:04;99392.88;;;1.97;100.00
55932;BME280;41837;55.700;37.984;2022-12-13T14:48:49;99388.28;;;2.19;100.00
55932;BME280;41837;55.700;37.984;2022-12-13T14:51:35;99388.84;;;2.38;100.00
55932;BME280;41837;55.700;37.984;2022-12-13T14:54:07;99394.25;;;2.21;100.00
55932;BME280;41837;55.700;37.984;2022-12-13T14:57:02;99393.31;;;2.27;100.00
55932;BME280;41837;55.700;37.984;2022-12-13T14:59:33;99390.13;;;2.10;100.00
55932;BME280;41837;55.700;37.984;2022-12-13T15:02:12;99384.75;;;2.25;100.00
55932;BME280;41837;55.700;37.984;2022-12-13T15:05:00;99386.47;;;2.26;100.00
55932;BME280;41837;55.700;37.984;2022-12-13T15:07:41;99378.84;;;2.17;100.00
55932;BME280;41837;55.700;37.984;2022-12-13T15:10:21;99387.50;;;2.13;100.00
55932;BME280;41837;55.700;37.984;2022-12-13T15:12:59;99384.72;;;2.28;100.00
55932;BME280;41837;55.700;37.984;2022-12-13T15:15:37;99377.78;;;2.30;100.00
55932;BME280;41837;55.700;37.984;2022-12-13T15:18:20;99377.47;;;2.50;100.00
55932;BME280;41837;55.700;37.984;2022-12-13T15:20:56;99380.13;;;2.46;100.00
55932;BME280;41837;55.700;37.984;2022-12-13T15:23:58;99384.22;;;2.59;100.00
55932;BME280;41837;55.700;37.984;2022-12-13T15:26:37;99384.13;;;2.65;100.00
55932;BME280;41837;55.700;37.984;2022-12-13T15:29:13;99399.00;;;2.48;100.00
55932;BME280;41837;55.700;37.984;2022-12-13T15:31:50;99404.94;;;2.53;100.00
55932;BME280;41837;55.700;37.984;2022-12-13T15:34:34;99398.97;;;2.51;100.00
55932;BME280;41837;55.700;37.984;2022-12-13T15:40:05;99399.94;;;2.45;100.00
55932;BME280;41837;55.700;37.984;2022-12-13T15:42:47;99402.53;;;2.42;100.00
55932;BME280;41837;55.700;37.984;2022-12-13T15:45:35;99393.09;;;2.41;100.00